Details for EasyJet at EGAA




Go Back


Latest METAR
Local Time

EGAA 280120Z 08007KT CAVOK 13/11 Q1019

28/05/2018, 02:28:04

Description
Results
EasyJet Logo
Number of Pilots based at EGAA
1 Pilots Based here
Number of EasyJet Flights Departed from EGAA
10 Flights Departed
Number of EasyJet Flights Arrived at EGAA
11 Flights Arrived
Number of EasyJet Schedules Departing from EGAA
207 Schedules
Number of EasyJet Schedules Arriving at EGAA
222 Schedules
Number of EasyJet Schedules Departing from EGAA availible today
84 Schedules Today
Number of EasyJet Schedules Arriving at EGAA availible today
87 Schedules Today
Average Landing Rate at EGAA
-230 fpm
EasyJet Average Landing Rate at EGAA
-175 fpm
Total Fuel Purchased at EGAA by EasyJet
22,299.51 kgs / 49,161.50 lbs

Pilots Based at EGAA


Pilot ID
Pilot Name
Pilot Rank
No. of Flights
No. of Flying Hours
Dean Cullen
141
182.39
Content